sensor_id;sensor_type;location;lat;lon;timestamp;pressure;altitude;pressure_sealevel;temperature;humidity
25610;BME280;13479;49.044;8.716;2023-03-19T05:00:26;98841.09;;;11.25;59.45
25610;BME280;13479;49.044;8.716;2023-03-19T05:02:52;98848.91;;;11.36;59.10
25610;BME280;13479;49.044;8.716;2023-03-19T05:05:17;98854.22;;;11.46;59.04
25610;BME280;13479;49.044;8.716;2023-03-19T05:07:42;98869.88;;;11.49;58.79
25610;BME280;13479;49.044;8.716;2023-03-19T05:10:08;98872.13;;;11.54;58.78
25610;BME280;13479;49.044;8.716;2023-03-19T05:12:34;98876.31;;;11.56;58.91
25610;BME280;13479;49.044;8.716;2023-03-19T05:15:00;98865.13;;;11.53;59.36
25610;BME280;13479;49.044;8.716;2023-03-19T05:17:26;98862.16;;;11.66;59.13
25610;BME280;13479;49.044;8.716;2023-03-19T05:19:51;98864.13;;;11.64;59.52
25610;BME280;13479;49.044;8.716;2023-03-19T05:22:17;98859.66;;;11.64;59.49
25610;BME280;13479;49.044;8.716;2023-03-19T05:24:42;98858.97;;;11.52;60.02
25610;BME280;13479;49.044;8.716;2023-03-19T05:27:08;98865.69;;;11.47;60.39
25610;BME280;13479;49.044;8.716;2023-03-19T05:29:33;98866.13;;;11.32;61.13
25610;BME280;13479;49.044;8.716;2023-03-19T05:31:58;98870.31;;;11.25;62.05
25610;BME280;13479;49.044;8.716;2023-03-19T05:34:27;98874.09;;;11.32;61.33
25610;BME280;13479;49.044;8.716;2023-03-19T05:36:52;98879.41;;;11.42;61.11
25610;BME280;13479;49.044;8.716;2023-03-19T05:39:17;98875.09;;;11.31;61.34
25610;BME280;13479;49.044;8.716;2023-03-19T05:41:43;98875.91;;;11.32;61.85
25610;BME280;13479;49.044;8.716;2023-03-19T05:44:09;98876.06;;;11.30;62.06
25610;BME280;13479;49.044;8.716;2023-03-19T05:46:34;98871.44;;;11.22;62.48
25610;BME280;13479;49.044;8.716;2023-03-19T05:48:59;98881.22;;;11.22;62.37
25610;BME280;13479;49.044;8.716;2023-03-19T05:51:24;98883.06;;;11.31;62.32
25610;BME280;13479;49.044;8.716;2023-03-19T05:53:50;98874.09;;;11.22;62.64
25610;BME280;13479;49.044;8.716;2023-03-19T05:56:15;98884.44;;;11.35;62.13
25610;BME280;13479;49.044;8.716;2023-03-19T05:58:41;98887.25;;;11.34;62.18
25610;BME280;13479;49.044;8.716;2023-03-19T06:01:06;98898.44;;;11.37;61.66
25610;BME280;13479;49.044;8.716;2023-03-19T06:03:31;98901.66;;;11.41;61.43
25610;BME280;13479;49.044;8.716;2023-03-19T06:05:56;98908.38;;;11.35;61.93
25610;BME280;13479;49.044;8.716;2023-03-19T06:08:22;98893.13;;;11.37;61.95
25610;BME280;13479;49.044;8.716;2023-03-19T06:10:47;98892.53;;;11.43;61.89
25610;BME280;13479;49.044;8.716;2023-03-19T06:13:13;98885.97;;;11.48;61.86
25610;BME280;13479;49.044;8.716;2023-03-19T06:15:38;98893.13;;;11.47;62.24
25610;BME280;13479;49.044;8.716;2023-03-19T06:18:03;98898.41;;;11.57;62.11
25610;BME280;13479;49.044;8.716;2023-03-19T06:20:29;98898.72;;;11.44;62.65
25610;BME280;13479;49.044;8.716;2023-03-19T06:22:54;98905.41;;;11.58;62.54
25610;BME280;13479;49.044;8.716;2023-03-19T06:25:19;98903.56;;;11.68;62.26
25610;BME280;13479;49.044;8.716;2023-03-19T06:27:45;98918.16;;;11.64;62.27
25610;BME280;13479;49.044;8.716;2023-03-19T06:30:11;98912.13;;;11.62;62.48
25610;BME280;13479;49.044;8.716;2023-03-19T06:32:37;98902.63;;;11.50;62.91
25610;BME280;13479;49.044;8.716;2023-03-19T06:35:03;98900.13;;;11.48;63.30
25610;BME280;13479;49.044;8.716;2023-03-19T06:37:28;98913.13;;;11.61;62.77
25610;BME280;13479;49.044;8.716;2023-03-19T06:39:54;98912.13;;;11.62;62.61
25610;BME280;13479;49.044;8.716;2023-03-19T06:42:20;98914.09;;;11.60;62.62
25610;BME280;13479;49.044;8.716;2023-03-19T06:44:46;98916.91;;;11.58;62.38
25610;BME280;13479;49.044;8.716;2023-03-19T06:47:11;98915.78;;;11.61;62.49
25610;BME280;13479;49.044;8.716;2023-03-19T06:49:36;98925.56;;;11.70;62.16
25610;BME280;13479;49.044;8.716;2023-03-19T06:52:02;98924.31;;;11.74;62.46
25610;BME280;13479;49.044;8.716;2023-03-19T06:54:27;98939.13;;;11.87;61.97
25610;BME280;13479;49.044;8.716;2023-03-19T06:56:53;98957.72;;;12.07;60.89
25610;BME280;13479;49.044;8.716;2023-03-19T06:59:18;98963.44;;;12.12;60.82
25610;BME280;13479;49.044;8.716;2023-03-19T07:01:43;98959.69;;;12.14;61.29
25610;BME280;13479;49.044;8.716;2023-03-19T07:04:10;98971.94;;;12.35;60.39
25610;BME280;13479;49.044;8.716;2023-03-19T07:06:36;98981.44;;;12.47;60.01
25610;BME280;13479;49.044;8.716;2023-03-19T07:09:01;98979.69;;;12.56;59.66
25610;BME280;13479;49.044;8.716;2023-03-19T07:11:27;98976.81;;;12.77;58.88
25610;BME280;13479;49.044;8.716;2023-03-19T07:13:52;98987.69;;;12.94;58.15
25610;BME280;13479;49.044;8.716;2023-03-19T07:16:17;98986.25;;;13.00;57.80
25610;BME280;13479;49.044;8.716;2023-03-19T07:18:43;98989.69;;;13.10;57.07
25610;BME280;13479;49.044;8.716;2023-03-19T07:21:08;98987.94;;;13.19;57.08
25610;BME280;13479;49.044;8.716;2023-03-19T07:23:33;98985.72;;;13.42;56.78
25610;BME280;13479;49.044;8.716;2023-03-19T07:25:58;98988.91;;;14.00;55.37
25610;BME280;13479;49.044;8.716;2023-03-19T07:28:24;98994.66;;;14.40;54.28
25610;BME280;13479;49.044;8.716;2023-03-19T07:30:52;99001.47;;;14.60;53.50
25610;BME280;13479;49.044;8.716;2023-03-19T07:33:19;99007.25;;;14.74;52.36
25610;BME280;13479;49.044;8.716;2023-03-19T07:35:45;99002.94;;;14.81;52.12
25610;BME280;13479;49.044;8.716;2023-03-19T07:38:10;99004.16;;;14.95;51.71
25610;BME280;13479;49.044;8.716;2023-03-19T07:40:35;99005.06;;;15.20;51.27
25610;BME280;13479;49.044;8.716;2023-03-19T07:43:01;99006.66;;;15.48;50.75
25610;BME280;13479;49.044;8.716;2023-03-19T07:45:27;99000.31;;;15.65;50.65
25610;BME280;13479;49.044;8.716;2023-03-19T07:47:52;99001.38;;;15.89;49.09
25610;BME280;13479;49.044;8.716;2023-03-19T07:50:18;98998.00;;;16.20;48.12
25610;BME280;13479;49.044;8.716;2023-03-19T07:52:46;98997.59;;;16.56;46.91
25610;BME280;13479;49.044;8.716;2023-03-19T07:55:13;99009.34;;;16.47;46.60
25610;BME280;13479;49.044;8.716;2023-03-19T07:57:38;99003.69;;;16.25;47.20
25610;BME280;13479;49.044;8.716;2023-03-19T08:00:04;98999.34;;;16.08;47.80
25610;BME280;13479;49.044;8.716;2023-03-19T08:02:29;98997.00;;;15.96;47.82
25610;BME280;13479;49.044;8.716;2023-03-19T08:04:55;98991.97;;;15.93;48.08
25610;BME280;13479;49.044;8.716;2023-03-19T08:07:20;98994.00;;;16.08;47.48
25610;BME280;13479;49.044;8.716;2023-03-19T08:09:46;99000.94;;;16.50;46.97
25610;BME280;13479;49.044;8.716;2023-03-19T08:12:12;99010.00;;;18.30;43.82
25610;BME280;13479;49.044;8.716;2023-03-19T08:14:38;99015.84;;;19.60;40.32
25610;BME280;13479;49.044;8.716;2023-03-19T08:17:03;99026.31;;;20.98;38.44
25610;BME280;13479;49.044;8.716;2023-03-19T08:19:29;99029.31;;;22.46;35.38
25610;BME280;13479;49.044;8.716;2023-03-19T08:21:54;99034.56;;;23.27;33.94
25610;BME280;13479;49.044;8.716;2023-03-19T08:24:20;99030.44;;;23.95;32.61
25610;BME280;13479;49.044;8.716;2023-03-19T08:26:45;99025.53;;;23.79;32.03
25610;BME280;13479;49.044;8.716;2023-03-19T08:29:11;99020.22;;;23.13;32.95
25610;BME280;13479;49.044;8.716;2023-03-19T08:31:36;99014.75;;;22.47;33.81
25610;BME280;13479;49.044;8.716;2023-03-19T08:34:01;99020.13;;;21.80;34.60
25610;BME280;13479;49.044;8.716;2023-03-19T08:36:29;98998.84;;;21.43;35.54
25610;BME280;13479;49.044;8.716;2023-03-19T08:38:55;99011.78;;;21.00;35.52
25610;BME280;13479;49.044;8.716;2023-03-19T08:41:21;98991.41;;;20.62;36.95
25610;BME280;13479;49.044;8.716;2023-03-19T08:43:46;98979.63;;;20.34;37.53
25610;BME280;13479;49.044;8.716;2023-03-19T08:46:12;98981.72;;;20.11;38.10
25610;BME280;13479;49.044;8.716;2023-03-19T08:48:37;98991.09;;;20.15;37.48
25610;BME280;13479;49.044;8.716;2023-03-19T08:51:02;98977.13;;;19.83;38.22
25610;BME280;13479;49.044;8.716;2023-03-19T08:53:28;98980.34;;;19.71;38.83
25610;BME280;13479;49.044;8.716;2023-03-19T08:55:56;98982.69;;;19.59;39.02
25610;BME280;13479;49.044;8.716;2023-03-19T08:58:22;98988.66;;;20.20;38.40
25610;BME280;13479;49.044;8.716;2023-03-19T09:00:48;98999.84;;;20.80;36.81
25610;BME280;13479;49.044;8.716;2023-03-19T09:03:15;99011.59;;;21.70;35.62
25610;BME280;13479;49.044;8.716;2023-03-19T09:05:40;99021.56;;;23.42;33.27
25610;BME280;13479;49.044;8.716;2023-03-19T09:08:05;99036.75;;;24.65;30.63
25610;BME280;13479;49.044;8.716;2023-03-19T09:10:31;99037.75;;;25.08;29.93
25610;BME280;13479;49.044;8.716;2023-03-19T09:12:57;99039.34;;;25.95;28.68
25610;BME280;13479;49.044;8.716;2023-03-19T09:15:22;99040.03;;;27.33;27.53
25610;BME280;13479;49.044;8.716;2023-03-19T09:17:48;99037.06;;;27.93;25.63
25610;BME280;13479;49.044;8.716;2023-03-19T09:20:13;99042.91;;;28.13;25.12
25610;BME280;13479;49.044;8.716;2023-03-19T09:22:39;99044.31;;;28.89;24.08
25610;BME280;13479;49.044;8.716;2023-03-19T09:25:05;99033.75;;;29.65;24.21
25610;BME280;13479;49.044;8.716;2023-03-19T09:27:30;99035.97;;;30.28;22.84
25610;BME280;13479;49.044;8.716;2023-03-19T09:29:55;99028.78;;;29.89;22.88
25610;BME280;13479;49.044;8.716;2023-03-19T09:32:20;99039.38;;;29.31;23.09
25610;BME280;13479;49.044;8.716;2023-03-19T09:34:46;99027.66;;;28.34;23.80
25610;BME280;13479;49.044;8.716;2023-03-19T09:37:11;99021.28;;;27.49;25.11
25610;BME280;13479;49.044;8.716;2023-03-19T09:39:37;99012.88;;;27.67;25.16
25610;BME280;13479;49.044;8.716;2023-03-19T09:42:48;99027.13;;;27.69;24.62
25610;BME280;13479;49.044;8.716;2023-03-19T09:45:18;99017.22;;;27.10;25.20
25610;BME280;13479;49.044;8.716;2023-03-19T09:47:45;99012.19;;;26.55;25.80
25610;BME280;13479;49.044;8.716;2023-03-19T09:50:15;99004.75;;;26.26;25.79
25610;BME280;13479;49.044;8.716;2023-03-19T09:52:45;99006.94;;;27.12;24.85
25610;BME280;13479;49.044;8.716;2023-03-19T09:55:37;99015.28;;;27.64;24.21
25610;BME280;13479;49.044;8.716;2023-03-19T09:58:13;99019.16;;;27.51;23.47
25610;BME280;13479;49.044;8.716;2023-03-19T10:00:40;99012.78;;;27.33;23.40
25610;BME280;13479;49.044;8.716;2023-03-19T10:03:32;99013.06;;;26.55;24.33
25610;BME280;13479;49.044;8.716;2023-03-19T10:06:29;99005.69;;;26.32;25.33
25610;BME280;13479;49.044;8.716;2023-03-19T10:09:23;99007.13;;;26.46;27.31
25610;BME280;13479;49.044;8.716;2023-03-19T10:14:47;99017.59;;;28.18;24.87
25610;BME280;13479;49.044;8.716;2023-03-19T10:17:19;99021.13;;;29.14;24.41
25610;BME280;13479;49.044;8.716;2023-03-19T10:20:03;99017.25;;;29.82;24.25
25610;BME280;13479;49.044;8.716;2023-03-19T10:22:37;99025.00;;;30.23;22.56
25610;BME280;13479;49.044;8.716;2023-03-19T10:25:10;99023.72;;;30.35;21.79
25610;BME280;13479;49.044;8.716;2023-03-19T10:27:37;99024.94;;;30.98;21.46
25610;BME280;13479;49.044;8.716;2023-03-19T10:30:14;99023.91;;;31.15;21.54
25610;BME280;13479;49.044;8.716;2023-03-19T10:32:40;99033.81;;;31.26;21.37
25610;BME280;13479;49.044;8.716;2023-03-19T10:35:16;99019.03;;;31.37;21.05
25610;BME280;13479;49.044;8.716;2023-03-19T10:37:42;99024.88;;;31.51;21.30
25610;BME280;13479;49.044;8.716;2023-03-19T10:40:18;99018.03;;;31.64;20.84
25610;BME280;13479;49.044;8.716;2023-03-19T10:43:01;99026.84;;;31.97;21.01
25610;BME280;13479;49.044;8.716;2023-03-19T10:45:31;99025.75;;;31.78;20.48
25610;BME280;13479;49.044;8.716;2023-03-19T10:47:59;99016.25;;;31.11;21.18
25610;BME280;13479;49.044;8.716;2023-03-19T10:55:49;98998.53;;;29.73;22.70
25610;BME280;13479;49.044;8.716;2023-03-19T10:58:18;98980.53;;;29.23;22.81
25610;BME280;13479;49.044;8.716;2023-03-19T11:00:48;98992.94;;;28.13;22.93
25610;BME280;13479;49.044;8.716;2023-03-19T11:03:37;98977.28;;;27.91;23.41
25610;BME280;13479;49.044;8.716;2023-03-19T11:06:19;98977.91;;;28.10;23.11
25610;BME280;13479;49.044;8.716;2023-03-19T11:08:59;98971.34;;;27.94;23.41
25610;BME280;13479;49.044;8.716;2023-03-19T11:11:34;98968.88;;;28.10;23.09
25610;BME280;13479;49.044;8.716;2023-03-19T11:19:57;98968.03;;;29.54;22.51
25610;BME280;13479;49.044;8.716;2023-03-19T11:22:29;98971.06;;;29.90;22.54
25610;BME280;13479;49.044;8.716;2023-03-19T11:25:15;98974.75;;;29.74;22.05
25610;BME280;13479;49.044;8.716;2023-03-19T11:27:43;98981.59;;;29.00;22.34
25610;BME280;13479;49.044;8.716;2023-03-19T11:30:18;98975.91;;;28.05;22.78
25610;BME280;13479;49.044;8.716;2023-03-19T11:35:39;98957.31;;;26.34;25.71
25610;BME280;13479;49.044;8.716;2023-03-19T11:38:15;98950.41;;;25.72;26.51
25610;BME280;13479;49.044;8.716;2023-03-19T11:40:46;98947.06;;;25.27;26.95
25610;BME280;13479;49.044;8.716;2023-03-19T11:43:38;98943.13;;;24.74;27.20
25610;BME280;13479;49.044;8.716;2023-03-19T11:49:03;98942.09;;;23.55;28.49
25610;BME280;13479;49.044;8.716;2023-03-19T11:52:17;98930.44;;;23.23;29.41
25610;BME280;13479;49.044;8.716;2023-03-19T11:54:55;98934.84;;;23.10;30.50
25610;BME280;13479;49.044;8.716;2023-03-19T12:00:50;98934.00;;;22.58;31.83
25610;BME280;13479;49.044;8.716;2023-03-19T12:06:11;98918.31;;;22.01;33.11
25610;BME280;13479;49.044;8.716;2023-03-19T12:08:49;98911.66;;;22.03;33.34
25610;BME280;13479;49.044;8.716;2023-03-19T12:11:34;98916.59;;;21.53;35.16
25610;BME280;13479;49.044;8.716;2023-03-19T12:14:11;98923.44;;;21.35;35.67
25610;BME280;13479;49.044;8.716;2023-03-19T12:25:25;98907.69;;;21.86;36.00
25610;BME280;13479;49.044;8.716;2023-03-19T12:28:12;98908.69;;;22.18;34.71
25610;BME280;13479;49.044;8.716;2023-03-19T12:30:44;98914.13;;;22.18;34.45
25610;BME280;13479;49.044;8.716;2023-03-19T12:33:27;98916.38;;;22.28;34.20
25610;BME280;13479;49.044;8.716;2023-03-19T12:35:58;98915.16;;;22.17;34.28
25610;BME280;13479;49.044;8.716;2023-03-19T12:41:09;98914.28;;;22.30;34.65
25610;BME280;13479;49.044;8.716;2023-03-19T12:46:53;98912.66;;;22.23;34.68
25610;BME280;13479;49.044;8.716;2023-03-19T12:49:25;98910.38;;;22.19;34.45
25610;BME280;13479;49.044;8.716;2023-03-19T12:51:54;98917.44;;;22.07;34.99
25610;BME280;13479;49.044;8.716;2023-03-19T12:54:32;98913.09;;;21.79;35.72
25610;BME280;13479;49.044;8.716;2023-03-19T12:57:07;98910.78;;;21.49;36.13
25610;BME280;13479;49.044;8.716;2023-03-19T12:59:39;98911.19;;;21.33;36.03
25610;BME280;13479;49.044;8.716;2023-03-19T13:02:17;98909.91;;;21.28;35.84
25610;BME280;13479;49.044;8.716;2023-03-19T13:04:54;98910.66;;;20.95;36.16
25610;BME280;13479;49.044;8.716;2023-03-19T13:07:27;98905.91;;;20.97;36.12
25610;BME280;13479;49.044;8.716;2023-03-19T13:10:02;98913.41;;;21.02;36.08
25610;BME280;13479;49.044;8.716;2023-03-19T13:12:31;98916.13;;;21.16;35.80
25610;BME280;13479;49.044;8.716;2023-03-19T13:17:38;98918.19;;;21.07;35.59
25610;BME280;13479;49.044;8.716;2023-03-19T13:20:23;98916.53;;;21.12;36.82
25610;BME280;13479;49.044;8.716;2023-03-19T13:22:56;98914.50;;;21.21;35.75
25610;BME280;13479;49.044;8.716;2023-03-19T13:25:33;98914.06;;;21.24;36.13
25610;BME280;13479;49.044;8.716;2023-03-19T13:28:00;98925.59;;;20.91;36.12
25610;BME280;13479;49.044;8.716;2023-03-19T13:30:30;98915.94;;;20.68;36.73
25610;BME280;13479;49.044;8.716;2023-03-19T13:33:04;98924.53;;;20.50;37.66
25610;BME280;13479;49.044;8.716;2023-03-19T13:35:36;98923.34;;;20.53;37.30
25610;BME280;13479;49.044;8.716;2023-03-19T13:38:27;98915.94;;;20.33;37.83
25610;BME280;13479;49.044;8.716;2023-03-19T13:40:57;98919.78;;;20.17;38.63
25610;BME280;13479;49.044;8.716;2023-03-19T13:45:53;98924.44;;;19.73;39.07
25610;BME280;13479;49.044;8.716;2023-03-19T13:51:22;98929.63;;;19.10;40.18
25610;BME280;13479;49.044;8.716;2023-03-19T13:59:27;98918.69;;;18.96;41.56
25610;BME280;13479;49.044;8.716;2023-03-19T14:01:54;98918.31;;;19.00;42.42
25610;BME280;13479;49.044;8.716;2023-03-19T14:04:24;98912.28;;;18.97;43.52
25610;BME280;13479;49.044;8.716;2023-03-19T14:06:53;98911.28;;;18.83;44.81
25610;BME280;13479;49.044;8.716;2023-03-19T14:14:53;98907.13;;;19.18;43.07
25610;BME280;13479;49.044;8.716;2023-03-19T14:17:27;98907.66;;;19.28;42.45
25610;BME280;13479;49.044;8.716;2023-03-19T14:20:04;98913.13;;;19.20;41.92
25610;BME280;13479;49.044;8.716;2023-03-19T14:29:00;98908.88;;;18.74;42.36
25610;BME280;13479;49.044;8.716;2023-03-19T14:31:39;98909.00;;;18.50;43.67
25610;BME280;13479;49.044;8.716;2023-03-19T14:36:37;98915.88;;;18.38;44.08
25610;BME280;13479;49.044;8.716;2023-03-19T14:39:30;98911.78;;;18.27;43.74
25610;BME280;13479;49.044;8.716;2023-03-19T14:42:07;98905.28;;;18.21;44.40
25610;BME280;13479;49.044;8.716;2023-03-19T14:44:43;98905.28;;;18.21;44.87
25610;BME280;13479;49.044;8.716;2023-03-19T14:53:00;98927.19;;;18.48;43.04
25610;BME280;13479;49.044;8.716;2023-03-19T14:55:34;98937.38;;;18.53;43.21
25610;BME280;13479;49.044;8.716;2023-03-19T14:58:01;98939.78;;;18.63;42.51
25610;BME280;13479;49.044;8.716;2023-03-19T15:00:26;98943.50;;;18.62;42.49
25610;BME280;13479;49.044;8.716;2023-03-19T15:02:52;98941.16;;;18.59;43.10
25610;BME280;13479;49.044;8.716;2023-03-19T15:07:52;98931.69;;;18.48;43.04
25610;BME280;13479;49.044;8.716;2023-03-19T15:10:23;98926.22;;;18.41;43.42
25610;BME280;13479;49.044;8.716;2023-03-19T15:15:51;98921.06;;;18.25;43.27
25610;BME280;13479;49.044;8.716;2023-03-19T15:18:23;98920.13;;;18.17;43.67
25610;BME280;13479;49.044;8.716;2023-03-19T15:20:51;98919.28;;;18.02;44.11
25610;BME280;13479;49.044;8.716;2023-03-19T15:23:20;98918.31;;;17.95;45.04
25610;BME280;13479;49.044;8.716;2023-03-19T15:25:48;98919.88;;;17.89;45.42
25610;BME280;13479;49.044;8.716;2023-03-19T15:28:15;98923.75;;;17.86;46.01
25610;BME280;13479;49.044;8.716;2023-03-19T15:30:41;98919.66;;;17.75;47.42
25610;BME280;13479;49.044;8.716;2023-03-19T15:33:24;98929.28;;;17.70;47.92
25610;BME280;13479;49.044;8.716;2023-03-19T15:35:57;98922.19;;;17.54;48.74
25610;BME280;13479;49.044;8.716;2023-03-19T15:38:26;98923.75;;;17.48;49.21
25610;BME280;13479;49.044;8.716;2023-03-19T15:40:54;98925.09;;;17.44;50.39
25610;BME280;13479;49.044;8.716;2023-03-19T15:43:20;98922.19;;;17.31;50.55
25610;BME280;13479;49.044;8.716;2023-03-19T15:45:49;98921.16;;;17.32;50.76
25610;BME280;13479;49.044;8.716;2023-03-19T15:48:26;98924.09;;;17.22;51.07
25610;BME280;13479;49.044;8.716;2023-03-19T15:50:58;98927.66;;;17.14;51.75
25610;BME280;13479;49.044;8.716;2023-03-19T15:53:27;98931.03;;;17.08;51.52
25610;BME280;13479;49.044;8.716;2023-03-19T15:55:54;98930.91;;;17.01;52.27
25610;BME280;13479;49.044;8.716;2023-03-19T15:58:23;98919.03;;;16.95;52.24
25610;BME280;13479;49.044;8.716;2023-03-19T16:00:51;98932.44;;;16.95;51.86
25610;BME280;13479;49.044;8.716;2023-03-19T16:03:21;98924.44;;;16.87;52.36
25610;BME280;13479;49.044;8.716;2023-03-19T16:08:53;98936.13;;;16.94;51.41
25610;BME280;13479;49.044;8.716;2023-03-19T16:11:35;98947.72;;;16.95;51.61
25610;BME280;13479;49.044;8.716;2023-03-19T16:16:43;98967.53;;;17.17;50.87
25610;BME280;13479;49.044;8.716;2023-03-19T16:19:32;98992.00;;;17.22;49.83
25610;BME280;13479;49.044;8.716;2023-03-19T16:21:59;98995.28;;;17.33;49.38
25610;BME280;13479;49.044;8.716;2023-03-19T16:24:32;99003.59;;;17.46;49.01
25610;BME280;13479;49.044;8.716;2023-03-19T16:27:02;98990.13;;;17.23;49.49
25610;BME280;13479;49.044;8.716;2023-03-19T16:29:34;98988.06;;;17.02;50.09
25610;BME280;13479;49.044;8.716;2023-03-19T16:34:46;98969.50;;;16.35;52.04
25610;BME280;13479;49.044;8.716;2023-03-19T16:37:42;98986.47;;;16.03;53.57
25610;BME280;13479;49.044;8.716;2023-03-19T16:42:48;98983.22;;;15.41;56.09
25610;BME280;13479;49.044;8.716;2023-03-19T16:47:49;98990.78;;;14.95;57.87
25610;BME280;13479;49.044;8.716;2023-03-19T16:50:16;98988.97;;;14.95;58.02
25610;BME280;13479;49.044;8.716;2023-03-19T16:52:43;98998.09;;;14.85;58.62
25610;BME280;13479;49.044;8.716;2023-03-19T16:55:21;99002.63;;;14.84;58.91
25610;BME280;13479;49.044;8.716;2023-03-19T17:00:35;99013.66;;;14.63;59.47
25610;BME280;13479;49.044;8.716;2023-03-19T17:03:00;99008.28;;;14.55;59.73
25610;BME280;13479;49.044;8.716;2023-03-19T17:05:27;99023.19;;;14.39;58.54
25610;BME280;13479;49.044;8.716;2023-03-19T17:07:53;99038.88;;;14.34;58.06
25610;BME280;13479;49.044;8.716;2023-03-19T17:10:25;99018.91;;;14.02;59.04
25610;BME280;13479;49.044;8.716;2023-03-19T17:12:52;99026.13;;;13.83;60.22
25610;BME280;13479;49.044;8.716;2023-03-19T17:15:38;99040.53;;;13.54;61.22
25610;BME280;13479;49.044;8.716;2023-03-19T17:18:15;99032.59;;;13.35;62.04
25610;BME280;13479;49.044;8.716;2023-03-19T17:20:56;99043.88;;;13.28;62.58
25610;BME280;13479;49.044;8.716;2023-03-19T17:23:23;99041.69;;;13.14;63.82
25610;BME280;13479;49.044;8.716;2023-03-19T17:25:51;99044.00;;;13.09;64.75
25610;BME280;13479;49.044;8.716;2023-03-19T17:28:16;99056.78;;;13.05;65.60
25610;BME280;13479;49.044;8.716;2023-03-19T17:30:42;99050.44;;;13.06;66.14
25610;BME280;13479;49.044;8.716;2023-03-19T17:33:20;99061.94;;;13.07;66.68
25610;BME280;13479;49.044;8.716;2023-03-19T17:35:46;99058.94;;;12.92;67.47
25610;BME280;13479;49.044;8.716;2023-03-19T17:38:14;99068.19;;;12.88;68.49
25610;BME280;13479;49.044;8.716;2023-03-19T17:40:41;99074.94;;;12.82;68.59
25610;BME280;13479;49.044;8.716;2023-03-19T17:43:09;99076.91;;;12.80;69.23
25610;BME280;13479;49.044;8.716;2023-03-19T17:45:35;99067.22;;;12.79;69.85
25610;BME280;13479;49.044;8.716;2023-03-19T17:48:01;99075.53;;;12.76;70.33
25610;BME280;13479;49.044;8.716;2023-03-19T17:50:28;99076.81;;;12.62;70.80
25610;BME280;13479;49.044;8.716;2023-03-19T17:52:55;99078.53;;;12.53;70.82
25610;BME280;13479;49.044;8.716;2023-03-19T17:55:23;99083.03;;;12.43;70.92
25610;BME280;13479;49.044;8.716;2023-03-19T17:57:49;99091.53;;;12.66;71.31
25610;BME280;13479;49.044;8.716;2023-03-19T18:00:16;99089.03;;;12.45;71.41
25610;BME280;13479;49.044;8.716;2023-03-19T18:02:43;99085.44;;;12.26;71.59
25610;BME280;13479;49.044;8.716;2023-03-19T18:05:14;99091.59;;;12.17;71.99
25610;BME280;13479;49.044;8.716;2023-03-19T18:07:40;99090.50;;;12.10;72.44
25610;BME280;13479;49.044;8.716;2023-03-19T18:10:06;99090.34;;;12.01;72.60
25610;BME280;13479;49.044;8.716;2023-03-19T18:12:31;99086.53;;;11.94;73.08
25610;BME280;13479;49.044;8.716;2023-03-19T18:14:56;99094.66;;;11.83;73.11
25610;BME280;13479;49.044;8.716;2023-03-19T18:17:22;99090.88;;;11.76;73.61
25610;BME280;13479;49.044;8.716;2023-03-19T18:19:47;99089.19;;;11.74;73.76
25610;BME280;13479;49.044;8.716;2023-03-19T18:22:16;99092.69;;;11.75;73.87
25610;BME280;13479;49.044;8.716;2023-03-19T18:24:42;99094.94;;;11.70;74.11
25610;BME280;13479;49.044;8.716;2023-03-19T18:27:07;99097.16;;;11.65;74.25
25610;BME280;13479;49.044;8.716;2023-03-19T18:29:33;99091.69;;;11.66;74.36
25610;BME280;13479;49.044;8.716;2023-03-19T18:32:05;99097.72;;;11.68;74.62
25610;BME280;13479;49.044;8.716;2023-03-19T18:34:31;99099.13;;;11.72;74.93
25610;BME280;13479;49.044;8.716;2023-03-19T18:36:58;99108.63;;;11.75;74.78
25610;BME280;13479;49.044;8.716;2023-03-19T18:39:23;99100.94;;;11.82;75.07
25610;BME280;13479;49.044;8.716;2023-03-19T18:41:49;99103.88;;;11.79;75.04
25610;BME280;13479;49.044;8.716;2023-03-19T18:44:14;99109.75;;;11.72;75.17
25610;BME280;13479;49.044;8.716;2023-03-19T18:46:40;99108.50;;;11.77;75.19
25610;BME280;13479;49.044;8.716;2023-03-19T18:49:18;99100.81;;;11.73;75.40
25610;BME280;13479;49.044;8.716;2023-03-19T18:51:44;99099.94;;;11.63;76.32
25610;BME280;13479;49.044;8.716;2023-03-19T18:54:10;99108.75;;;11.54;76.35
25610;BME280;13479;49.044;8.716;2023-03-19T18:56:35;99117.72;;;11.53;76.72
25610;BME280;13479;49.044;8.716;2023-03-19T18:59:05;99115.88;;;11.53;77.25
25610;BME280;13479;49.044;8.716;2023-03-19T19:01:31;99121.75;;;11.57;77.56
25610;BME280;13479;49.044;8.716;2023-03-19T19:03:56;99124.84;;;11.62;77.66
25610;BME280;13479;49.044;8.716;2023-03-19T19:06:25;99126.09;;;11.58;77.82
25610;BME280;13479;49.044;8.716;2023-03-19T19:08:50;99127.91;;;11.48;78.81
25610;BME280;13479;49.044;8.716;2023-03-19T19:11:17;99135.25;;;11.34;79.40
25610;BME280;13479;49.044;8.716;2023-03-19T19:13:47;99141.06;;;11.18;80.14
25610;BME280;13479;49.044;8.716;2023-03-19T19:16:19;99147.94;;;11.21;80.38
25610;BME280;13479;49.044;8.716;2023-03-19T19:18:46;99153.78;;;11.15;80.41
25610;BME280;13479;49.044;8.716;2023-03-19T19:21:12;99145.91;;;11.03;80.93
25610;BME280;13479;49.044;8.716;2023-03-19T19:23:38;99149.22;;;10.95;81.49
25610;BME280;13479;49.044;8.716;2023-03-19T19:26:04;99140.75;;;10.80;82.11
25610;BME280;13479;49.044;8.716;2023-03-19T19:28:34;99152.41;;;10.68;82.78
25610;BME280;13479;49.044;8.716;2023-03-19T19:31:00;99162.31;;;10.66;83.12
25610;BME280;13479;49.044;8.716;2023-03-19T19:33:29;99161.88;;;10.61;83.51
25610;BME280;13479;49.044;8.716;2023-03-19T19:35:57;99162.97;;;10.26;83.79
25610;BME280;13479;49.044;8.716;2023-03-19T19:38:22;99170.28;;;10.01;84.41
25610;BME280;13479;49.044;8.716;2023-03-19T19:40:50;99174.06;;;9.87;85.16
25610;BME280;13479;49.044;8.716;2023-03-19T19:43:19;99189.38;;;9.83;85.99
25610;BME280;13479;49.044;8.716;2023-03-19T19:45:47;99202.66;;;9.83;86.21
25610;BME280;13479;49.044;8.716;2023-03-19T19:48:16;99209.03;;;9.69;86.33